createdAt,value
2018-12-25T00:01:54.435Z,102616.47
2018-12-25T00:04:22.788Z,102620.78
2018-12-25T00:06:51.173Z,102626.83
2018-12-25T00:09:19.522Z,102629.86
2018-12-25T00:11:47.907Z,102626.41
2018-12-25T00:14:16.272Z,102614.31
2018-12-25T00:16:44.638Z,102614.31
2018-12-25T00:19:13.001Z,102621.64
2018-12-25T00:21:41.364Z,102612.15
2018-12-25T00:24:09.729Z,102609.13
2018-12-25T00:26:38.111Z,102604.81
2018-12-25T00:29:06.500Z,102619.06
2018-12-25T00:31:34.868Z,102611.29
2018-12-25T00:34:03.237Z,102617.31
2018-12-25T00:36:31.611Z,102611.30
2018-12-25T00:41:40.787Z,102603.09
2018-12-25T00:44:09.168Z,102600.50
2018-12-25T00:46:37.563Z,102602.20
2018-12-25T00:49:05.947Z,102602.20
2018-12-25T00:51:34.308Z,102602.65
2018-12-25T00:54:02.675Z,102604.81
2018-12-25T00:56:31.075Z,102603.48
2018-12-25T00:58:59.460Z,102589.67
2018-12-25T01:01:27.838Z,102587.08
2018-12-25T01:03:56.188Z,102589.24
2018-12-25T01:06:24.560Z,102585.80
2018-12-25T01:08:52.913Z,102588.82
2018-12-25T01:11:21.285Z,102584.50
2018-12-25T01:13:49.672Z,102583.64
2018-12-25T01:16:18.044Z,102583.63
2018-12-25T01:18:46.407Z,102587.96
2018-12-25T01:21:15.626Z,102580.18
2018-12-25T01:23:43.997Z,102569.40
2018-12-25T01:26:12.379Z,102569.40
2018-12-25T01:28:40.756Z,102569.82
2018-12-25T01:31:09.110Z,102565.07
2018-12-25T01:33:37.495Z,102569.40
2018-12-25T01:36:05.861Z,102568.53
2018-12-25T01:38:34.233Z,102565.09
2018-12-25T01:41:02.591Z,102559.91
2018-12-25T01:43:30.999Z,102556.43
2018-12-25T01:45:59.361Z,102562.03
2018-12-25T01:48:27.734Z,102560.75
2018-12-25T01:50:56.109Z,102566.38
2018-12-25T01:53:24.461Z,102553.44
2018-12-25T01:55:52.830Z,102556.46
2018-12-25T01:58:21.204Z,102552.56
2018-12-25T02:00:49.572Z,102536.59
2018-12-25T02:03:17.943Z,102547.39
2018-12-25T02:05:46.310Z,102543.07
2018-12-25T02:08:14.678Z,102534.87
2018-12-25T02:10:43.059Z,102547.82
2018-12-25T02:13:11.422Z,102546.95
2018-12-25T02:15:39.778Z,102545.23
2018-12-25T02:18:08.149Z,102549.97
2018-12-25T02:20:36.514Z,102548.25
2018-12-25T02:23:04.873Z,102564.23
2018-12-25T02:25:33.240Z,102566.82
2018-12-25T02:28:01.602Z,102577.62
2018-12-25T02:30:29.962Z,102567.27
2018-12-25T02:32:58.316Z,102568.14
2018-12-25T02:35:26.709Z,102559.06
2018-12-25T02:37:55.084Z,102558.20
2018-12-25T02:40:23.450Z,102551.30
2018-12-25T02:42:51.842Z,102546.13
2018-12-25T02:45:20.249Z,102541.80
2018-12-25T02:47:49.655Z,102540.07
2018-12-25T02:50:18.021Z,102548.70
2018-12-25T02:52:46.417Z,102546.55
2018-12-25T02:55:14.776Z,102532.28
2018-12-25T02:57:43.125Z,102532.71
2018-12-25T03:00:11.504Z,102534.90
2018-12-25T03:02:39.864Z,102535.73
2018-12-25T03:05:08.221Z,102546.52
2018-12-25T03:07:36.569Z,102549.98
2018-12-25T03:10:44.980Z,102539.19
2018-12-25T03:13:13.345Z,102539.20
2018-12-25T03:15:41.707Z,102524.52
2018-12-25T03:18:10.094Z,102518.91
2018-12-25T03:20:38.464Z,102512.45
2018-12-25T03:23:06.824Z,102512.88
2018-12-25T03:25:35.199Z,102510.29
2018-12-25T03:28:03.546Z,102509.42
2018-12-25T03:30:31.921Z,102503.39
2018-12-25T03:33:00.282Z,102504.66
2018-12-25T03:35:28.657Z,102508.56
2018-12-25T03:37:57.045Z,102507.24
2018-12-25T03:40:25.406Z,102507.25
2018-12-25T03:42:53.786Z,102508.97
2018-12-25T03:45:22.144Z,102513.29
2018-12-25T03:47:50.530Z,102509.41
2018-12-25T03:50:18.894Z,102509.41
2018-12-25T03:52:47.298Z,102511.57
2018-12-25T03:55:15.658Z,102508.12
2018-12-25T03:57:44.032Z,102515.86
2018-12-25T04:00:12.389Z,102511.54
2018-12-25T04:02:40.757Z,102514.99
2018-12-25T04:05:09.130Z,102506.79
2018-12-25T04:07:38.541Z,102500.31
2018-12-25T04:10:06.921Z,102505.92
2018-12-25T04:12:35.299Z,102504.20
2018-12-25T04:15:15.363Z,102499.88
2018-12-25T04:17:43.721Z,102494.70
2018-12-25T04:20:19.674Z,102489.52
2018-12-25T04:22:42.208Z,102491.25
2018-12-25T04:25:10.575Z,102492.97
2018-12-25T04:27:38.953Z,102489.95
2018-12-25T04:30:07.336Z,102485.20
2018-12-25T04:32:35.699Z,102488.22
2018-12-25T04:35:04.219Z,102479.62
2018-12-25T04:37:32.578Z,102485.23
2018-12-25T04:40:01.048Z,102482.64
2018-12-25T04:42:29.396Z,102477.89
2018-12-25T04:44:57.783Z,102477.03
2018-12-25T04:47:26.232Z,102489.55
2018-12-25T04:49:54.592Z,102489.98
2018-12-25T04:52:22.958Z,102493.00
2018-12-25T04:54:51.330Z,102489.11
2018-12-25T04:57:19.710Z,102487.39
2018-12-25T04:59:48.081Z,102488.68
2018-12-25T05:02:16.451Z,102476.20
2018-12-25T05:04:44.799Z,102487.84
2018-12-25T05:07:13.157Z,102482.23
2018-12-25T05:09:41.522Z,102479.64
2018-12-25T05:12:09.889Z,102473.61
2018-12-25T05:14:38.281Z,102474.89
2018-12-25T05:17:06.638Z,102476.63
2018-12-25T05:19:35.004Z,102470.14
2018-12-25T05:22:03.503Z,102473.16
2018-12-25T05:24:31.830Z,102477.05
2018-12-25T05:27:00.210Z,102478.34
2018-12-25T05:29:28.571Z,102478.78
2018-12-25T05:31:56.932Z,102477.05
2018-12-25T05:34:25.297Z,102487.41
2018-12-25T05:36:53.672Z,102490.00
2018-12-25T05:39:22.058Z,102481.80
2018-12-25T05:41:50.419Z,102483.09
2018-12-25T05:44:18.780Z,102486.12
2018-12-25T05:46:48.137Z,102495.16
2018-12-25T05:49:16.502Z,102498.64
2018-12-25T05:51:44.877Z,102506.38
2018-12-25T05:54:13.252Z,102508.11
2018-12-25T05:56:41.629Z,102497.75
2018-12-25T05:59:09.988Z,102488.68
2018-12-25T06:01:38.350Z,102494.30
2018-12-25T06:04:06.730Z,102488.25
2018-12-25T06:06:35.100Z,102478.75
2018-12-25T06:11:42.418Z,102480.48
2018-12-25T06:14:10.792Z,102464.11
2018-12-25T06:16:39.152Z,102467.56
2018-12-25T06:19:26.874Z,102471.02
2018-12-25T06:21:55.241Z,102471.02
2018-12-25T06:24:23.605Z,102474.47
2018-12-25T06:26:51.976Z,102482.23
2018-12-25T06:29:20.342Z,102483.07
2018-12-25T06:31:48.708Z,102483.07
2018-12-25T06:34:17.081Z,102475.73
2018-12-25T06:36:45.455Z,102457.60
2018-12-25T06:39:13.802Z,102452.42
2018-12-25T06:41:42.193Z,102454.58
2018-12-25T06:44:10.573Z,102470.13
2018-12-25T06:46:39.035Z,102473.11
2018-12-25T06:49:07.394Z,102460.16
2018-12-25T06:51:35.775Z,102464.04
2018-12-25T06:54:04.145Z,102471.81
2018-12-25T06:56:32.499Z,102480.87
2018-12-25T06:59:00.889Z,102486.92
2018-12-25T07:01:29.235Z,102486.49
2018-12-25T07:03:57.601Z,102480.41
2018-12-25T07:06:25.961Z,102469.61
2018-12-25T07:08:54.339Z,102473.05
2018-12-25T07:11:22.680Z,102485.14
2018-12-25T07:13:51.033Z,102473.48
2018-12-25T07:16:19.401Z,102470.90
2018-12-25T07:18:47.756Z,102473.05
2018-12-25T07:21:16.118Z,102472.62
2018-12-25T07:23:44.884Z,102471.75
2018-12-25T07:26:13.250Z,102476.08
2018-12-25T07:28:41.604Z,102465.71
2018-12-25T07:31:09.964Z,102460.53
2018-12-25T07:33:39.331Z,102454.05
2018-12-25T07:36:09.459Z,102452.76
2018-12-25T07:38:37.804Z,102452.33
2018-12-25T07:41:06.164Z,102455.34
2018-12-25T07:43:34.519Z,102444.98
2018-12-25T07:46:02.896Z,102454.92
2018-12-25T07:48:31.257Z,102448.45
2018-12-25T07:50:59.625Z,102451.46
2018-12-25T07:53:27.979Z,102456.65
2018-12-25T07:55:56.339Z,102450.17
2018-12-25T07:58:24.713Z,102452.33
2018-12-25T08:00:53.067Z,102443.25
2018-12-25T08:03:21.424Z,102447.14
2018-12-25T08:05:49.768Z,102450.61
2018-12-25T08:08:18.131Z,102444.13
2018-12-25T08:10:46.496Z,102443.26
2018-12-25T08:13:14.875Z,102442.82
2018-12-25T08:15:43.247Z,102440.22
2018-12-25T08:18:11.598Z,102435.47
2018-12-25T08:20:39.966Z,102441.08
2018-12-25T08:23:08.329Z,102441.06
2018-12-25T08:25:36.733Z,102444.48
2018-12-25T08:28:05.089Z,102443.61
2018-12-25T08:30:33.474Z,102445.76
2018-12-25T08:33:01.862Z,102449.63
2018-12-25T08:35:30.237Z,102455.67
2018-12-25T08:37:58.590Z,102451.30
2018-12-25T08:40:26.953Z,102445.68
2018-12-25T08:42:55.328Z,102446.08
2018-12-25T08:45:23.693Z,102443.05
2018-12-25T08:47:52.065Z,102452.55
2018-12-25T08:50:20.434Z,102455.95
2018-12-25T08:52:48.792Z,102456.38
2018-12-25T08:55:17.155Z,102449.88
2018-12-25T08:57:45.523Z,102449.02
2018-12-25T09:00:13.961Z,102443.41
2018-12-25T09:02:42.694Z,102442.08
2018-12-25T09:05:11.061Z,102441.20
2018-12-25T09:07:39.417Z,102440.30
2018-12-25T09:10:07.774Z,102447.18
2018-12-25T09:12:36.138Z,102436.81
2018-12-25T09:15:04.653Z,102441.53
2018-12-25T09:17:33.000Z,102436.36
2018-12-25T09:20:01.378Z,102445.85
2018-12-25T09:22:29.737Z,102438.06
2018-12-25T09:24:58.098Z,102441.08
2018-12-25T09:27:26.458Z,102435.89
2018-12-25T09:29:54.801Z,102435.88
2018-12-25T09:32:23.179Z,102431.55
2018-12-25T09:34:51.526Z,102425.92
2018-12-25T09:37:19.890Z,102437.56
2018-12-25T09:39:48.249Z,102428.89
2018-12-25T09:42:16.711Z,102431.88
2018-12-25T09:44:45.066Z,102433.63
2018-12-25T09:47:13.429Z,102437.92
2018-12-25T09:49:41.779Z,102432.66
2018-12-25T09:52:10.134Z,102431.39
2018-12-25T09:54:38.485Z,102424.86
2018-12-25T09:57:06.844Z,102425.70
2018-12-25T09:59:35.201Z,102431.75
2018-12-25T10:02:03.557Z,102433.94
2018-12-25T10:04:31.963Z,102428.31
2018-12-25T10:07:00.325Z,102444.33
2018-12-25T10:09:28.685Z,102436.52
2018-12-25T10:11:57.057Z,102438.70
2018-12-25T10:14:25.431Z,102443.47
2018-12-25T10:16:53.777Z,102436.07
2018-12-25T10:19:22.136Z,102427.84
2018-12-25T10:21:50.517Z,102434.69
2018-12-25T10:24:18.896Z,102429.53
2018-12-25T10:26:47.245Z,102435.09
2018-12-25T10:29:15.611Z,102437.67
2018-12-25T10:31:43.967Z,102439.76
2018-12-25T10:34:52.364Z,102440.63
2018-12-25T10:37:20.721Z,102438.50
2018-12-25T10:39:49.092Z,102416.42
2018-12-25T10:42:17.443Z,102418.55
2018-12-25T10:44:45.837Z,102418.49
2018-12-25T10:47:14.255Z,102408.06
2018-12-25T10:49:42.612Z,102412.78
2018-12-25T10:52:11.817Z,102410.17
2018-12-25T10:54:41.040Z,102410.16
2018-12-25T10:57:09.405Z,102411.88
2018-12-25T10:59:37.766Z,102414.83
2018-12-25T11:02:06.118Z,102413.95
2018-12-25T11:04:34.498Z,102410.90
2018-12-25T11:07:02.846Z,102418.68
2018-12-25T11:09:31.200Z,102419.50
2018-12-25T11:11:59.566Z,102405.20
2018-12-25T11:14:27.934Z,102415.17
2018-12-25T11:16:56.312Z,102399.14
2018-12-25T11:19:24.663Z,102403.06
2018-12-25T11:21:53.049Z,102400.45
2018-12-25T11:24:21.382Z,102396.65
2018-12-25T11:26:49.744Z,102383.83
2018-12-25T11:29:37.223Z,102397.23
2018-12-25T11:32:05.587Z,102391.64
2018-12-25T11:34:33.942Z,102389.91
2018-12-25T11:37:02.306Z,102393.45
2018-12-25T11:39:30.674Z,102378.61
2018-12-25T11:41:59.035Z,102395.63
2018-12-25T11:44:27.406Z,102402.98
2018-12-25T11:46:55.746Z,102404.20
2018-12-25T11:49:24.109Z,102398.98
2018-12-25T11:51:52.458Z,102394.30
2018-12-25T11:54:20.826Z,102393.37
2018-12-25T11:56:49.174Z,102389.09
2018-12-25T11:59:17.551Z,102392.05
2018-12-25T12:01:45.896Z,102392.91
2018-12-25T12:04:14.319Z,102381.64
2018-12-25T12:06:42.665Z,102388.17
2018-12-25T12:09:11.026Z,102386.87
2018-12-25T12:11:39.392Z,102391.19
2018-12-25T12:14:07.743Z,102389.95
2018-12-25T12:16:36.111Z,102390.33
2018-12-25T12:19:04.465Z,102385.97
2018-12-25T12:21:32.856Z,102396.36
2018-12-25T12:24:01.211Z,102366.04
2018-12-25T12:26:29.584Z,102366.04
2018-12-25T12:28:57.933Z,102391.55
2018-12-25T12:31:26.302Z,102394.99
2018-12-25T12:33:54.662Z,102389.34
2018-12-25T12:36:23.011Z,102391.05
2018-12-25T12:38:51.362Z,102398.86
2018-12-25T12:41:19.714Z,102402.34
2018-12-25T12:43:48.066Z,102406.70
2018-12-25T12:46:16.439Z,102409.28
2018-12-25T12:48:44.799Z,102408.44
2018-12-25T12:51:13.170Z,102406.31
2018-12-25T12:53:41.863Z,102409.83
2018-12-25T12:56:10.240Z,102414.65
2018-12-25T12:58:38.589Z,102418.11
2018-12-25T13:01:06.949Z,102413.30
2018-12-25T13:03:35.316Z,102409.83
2018-12-25T13:06:03.673Z,102408.16
2018-12-25T13:08:32.032Z,102409.83
2018-12-25T13:11:00.397Z,102413.70
2018-12-25T13:13:28.756Z,102416.34
2018-12-25T13:15:57.117Z,102420.55
2018-12-25T13:18:25.537Z,102417.20
2018-12-25T13:20:53.888Z,102414.22
2018-12-25T13:23:22.256Z,102408.17
2018-12-25T13:25:50.625Z,102420.22
2018-12-25T13:28:18.976Z,102428.10
2018-12-25T13:30:47.340Z,102425.42
2018-12-25T13:33:15.698Z,102434.05
2018-12-25T13:35:44.072Z,102432.45
2018-12-25T13:38:12.452Z,102432.77
2018-12-25T13:40:40.797Z,102434.16
2018-12-25T13:43:09.141Z,102437.21
2018-12-25T13:45:37.504Z,102445.42
2018-12-25T13:48:05.849Z,102449.39
2018-12-25T13:50:34.289Z,102452.84
2018-12-25T13:53:03.370Z,102445.08
2018-12-25T13:55:32.732Z,102454.56
2018-12-25T13:58:01.086Z,102449.44
2018-12-25T14:00:29.446Z,102449.86
2018-12-25T14:03:10.024Z,102458.53
2018-12-25T14:05:38.397Z,102444.32
2018-12-25T14:08:06.752Z,102452.56
2018-12-25T14:10:35.105Z,102450.83
2018-12-25T14:13:03.468Z,102454.74
2018-12-25T14:15:31.857Z,102449.52
2018-12-25T14:18:00.209Z,102453.87
2018-12-25T14:20:28.582Z,102453.91
2018-12-25T14:22:56.941Z,102452.62
2018-12-25T14:25:25.316Z,102450.87
2018-12-25T14:27:53.660Z,102440.91
2018-12-25T14:30:22.009Z,102441.39
2018-12-25T14:32:50.366Z,102440.52
2018-12-25T14:35:18.721Z,102437.52
2018-12-25T14:37:47.064Z,102434.06
2018-12-25T14:40:15.419Z,102433.61
2018-12-25T14:42:43.764Z,102428.01
2018-12-25T14:45:12.123Z,102439.32
2018-12-25T14:47:40.502Z,102442.80
2018-12-25T14:50:48.916Z,102435.88
2018-12-25T14:53:19.835Z,102429.72
2018-12-25T14:55:47.363Z,102440.20
2018-12-25T14:58:15.933Z,102437.19
2018-12-25T15:00:44.276Z,102437.19
2018-12-25T15:03:12.636Z,102434.59
2018-12-25T15:05:40.987Z,102426.81
2018-12-25T15:08:09.345Z,102428.56
2018-12-25T15:10:37.713Z,102427.28
2018-12-25T15:13:06.074Z,102429.42
2018-12-25T15:15:34.433Z,102434.16
2018-12-25T15:18:02.789Z,102430.71
2018-12-25T15:20:31.134Z,102435.03
2018-12-25T15:22:59.502Z,102428.95
2018-12-25T15:25:27.849Z,102431.58
2018-12-25T15:27:56.208Z,102430.19
2018-12-25T15:30:24.561Z,102432.44
2018-12-25T15:32:52.917Z,102438.50
2018-12-25T15:35:21.282Z,102430.71
2018-12-25T15:38:08.989Z,102419.50
2018-12-25T15:40:37.344Z,102419.50
2018-12-25T15:43:05.694Z,102426.41
2018-12-25T15:45:34.055Z,102423.81
2018-12-25T15:48:02.415Z,102421.23
2018-12-25T15:50:30.773Z,102418.62
2018-12-25T15:52:59.120Z,102424.22
2018-12-25T15:55:27.513Z,102427.28
2018-12-25T15:57:55.885Z,102422.86
2018-12-25T16:00:24.269Z,102430.27
2018-12-25T16:02:52.616Z,102430.28
2018-12-25T16:05:20.971Z,102433.34
2018-12-25T16:07:49.327Z,102435.08
2018-12-25T16:10:17.777Z,102429.05
2018-12-25T16:12:46.129Z,102434.69
2018-12-25T16:15:14.481Z,102424.29
2018-12-25T16:17:42.895Z,102426.02
2018-12-25T16:20:11.250Z,102423.38
2018-12-25T16:22:39.594Z,102432.03
2018-12-25T16:25:07.941Z,102432.07
2018-12-25T16:27:36.286Z,102427.32
2018-12-25T16:30:44.668Z,102424.29
2018-12-25T16:33:13.044Z,102421.27
2018-12-25T16:35:41.386Z,102418.24
2018-12-25T16:38:09.732Z,102416.16
2018-12-25T16:40:38.093Z,102418.75
2018-12-25T16:43:06.458Z,102417.80
2018-12-25T16:45:34.823Z,102419.61
2018-12-25T16:48:03.170Z,102418.67
2018-12-25T16:50:31.531Z,102424.78
2018-12-25T16:52:59.880Z,102428.30
2018-12-25T16:55:28.235Z,102418.37
2018-12-25T16:57:56.578Z,102417.50
2018-12-25T17:00:24.946Z,102417.05
2018-12-25T17:02:53.304Z,102421.80
2018-12-25T17:05:21.655Z,102420.95
2018-12-25T17:07:50.015Z,102418.37
2018-12-25T17:10:18.384Z,102419.66
2018-12-25T17:12:46.747Z,102416.17
2018-12-25T17:15:15.096Z,102414.45
2018-12-25T17:17:43.489Z,102417.09
2018-12-25T17:20:11.857Z,102424.03
2018-12-25T17:22:40.209Z,102419.67
2018-12-25T17:25:08.572Z,102415.76
2018-12-25T17:27:36.920Z,102416.20
2018-12-25T17:30:45.310Z,102417.49
2018-12-25T17:33:13.670Z,102425.28
2018-12-25T17:35:42.695Z,102411.41
2018-12-25T17:38:11.965Z,102414.84
2018-12-25T17:40:41.559Z,102409.64
2018-12-25T17:43:09.924Z,102403.17
2018-12-25T17:45:38.277Z,102401.00
2018-12-25T17:48:06.631Z,102405.33
2018-12-25T17:50:34.981Z,102411.38
2018-12-25T17:53:03.339Z,102403.16
2018-12-25T17:55:31.685Z,102402.22
2018-12-25T17:58:00.098Z,102403.52
2018-12-25T18:00:28.467Z,102407.83
2018-12-25T18:02:56.811Z,102419.07
2018-12-25T18:05:25.179Z,102417.77
2018-12-25T18:07:53.531Z,102423.38
2018-12-25T18:10:21.900Z,102417.31
2018-12-25T18:12:50.258Z,102421.22
2018-12-25T18:15:18.621Z,102426.84
2018-12-25T18:17:46.993Z,102430.33
2018-12-25T18:20:15.345Z,102430.33
2018-12-25T18:22:43.713Z,102425.11
2018-12-25T18:25:12.063Z,102428.12
2018-12-25T18:27:40.839Z,102425.08
2018-12-25T18:30:10.519Z,102429.00
2018-12-25T18:32:38.864Z,102427.73
2018-12-25T18:35:07.230Z,102425.56
2018-12-25T18:37:35.600Z,102431.27
2018-12-25T18:40:44.080Z,102435.98
2018-12-25T18:43:12.415Z,102434.63
2018-12-25T18:45:41.047Z,102432.48
2018-12-25T18:48:09.409Z,102437.23
2018-12-25T18:50:37.775Z,102428.12
2018-12-25T18:53:06.145Z,102428.59
2018-12-25T18:55:34.503Z,102420.83
2018-12-25T18:58:02.858Z,102425.23
2018-12-25T19:00:31.209Z,102420.05
2018-12-25T19:02:59.567Z,102415.28
2018-12-25T19:05:27.920Z,102418.73
2018-12-25T19:07:56.290Z,102421.78
2018-12-25T19:10:24.634Z,102419.63
2018-12-25T19:12:52.996Z,102428.30
2018-12-25T19:16:01.382Z,102428.23
2018-12-25T19:18:29.723Z,102423.95
2018-12-25T19:20:58.086Z,102421.31
2018-12-25T19:23:26.431Z,102413.53
2018-12-25T19:26:14.141Z,102407.91
2018-12-25T19:28:42.493Z,102410.95
2018-12-25T19:31:10.851Z,102411.36
2018-12-25T19:33:39.202Z,102411.81
2018-12-25T19:36:07.568Z,102406.12
2018-12-25T19:38:35.915Z,102402.73
2018-12-25T19:41:04.264Z,102406.55
2018-12-25T19:43:32.628Z,102407.82
2018-12-25T19:46:34.184Z,102393.11
2018-12-25T19:49:02.544Z,102400.91
2018-12-25T19:51:30.898Z,102393.11
2018-12-25T19:54:18.597Z,102392.70
2018-12-25T19:56:46.948Z,102396.64
2018-12-25T19:59:15.307Z,102394.48
2018-12-25T20:01:43.655Z,102394.48
2018-12-25T20:04:52.060Z,102397.47
2018-12-25T20:07:54.542Z,102397.11
2018-12-25T20:11:01.627Z,102390.58
2018-12-25T20:14:10.105Z,102388.84
2018-12-25T20:17:12.596Z,102397.96
2018-12-25T20:20:14.415Z,102397.11
2018-12-25T20:23:21.503Z,102392.31
2018-12-25T20:26:28.575Z,102387.15
2018-12-25T20:29:35.631Z,102393.20
2018-12-25T20:32:42.716Z,102393.20
2018-12-25T20:35:49.777Z,102394.97
2018-12-25T20:38:56.856Z,102404.92
2018-12-25T20:42:05.267Z,102391.94
2018-12-25T20:45:12.315Z,102388.03
2018-12-25T20:48:20.725Z,102384.61
2018-12-25T20:51:27.783Z,102382.81
2018-12-25T20:54:34.862Z,102375.51
2018-12-25T20:57:36.605Z,102373.33
2018-12-25T21:00:38.297Z,102365.55
2018-12-25T21:03:45.362Z,102378.52
2018-12-25T21:06:53.826Z,102378.92
2018-12-25T21:10:00.892Z,102381.94
2018-12-25T21:13:08.046Z,102380.62
2018-12-25T21:16:15.113Z,102376.73
2018-12-25T21:19:22.200Z,102372.44
2018-12-25T21:22:24.703Z,102376.33
2018-12-25T21:25:31.794Z,102375.02
2018-12-25T21:27:59.107Z,102364.61
2018-12-25T21:31:07.500Z,102372.42
2018-12-25T21:33:35.864Z,102373.27
2018-12-25T21:36:04.215Z,102378.05
2018-12-25T21:38:32.575Z,102373.72
2018-12-25T21:41:40.957Z,102372.85
2018-12-25T21:44:09.330Z,102371.12
2018-12-25T21:46:37.702Z,102371.55
2018-12-25T21:49:06.117Z,102363.31
2018-12-25T21:51:34.469Z,102376.69
2018-12-25T21:54:02.823Z,102372.32
2018-12-25T21:56:31.237Z,102368.46
2018-12-25T21:58:59.596Z,102360.28
2018-12-25T22:01:27.966Z,102368.53
2018-12-25T22:03:56.325Z,102365.47
2018-12-25T22:06:24.699Z,102362.02
2018-12-25T22:08:53.056Z,102363.70
2018-12-25T22:11:21.420Z,102363.75
2018-12-25T22:13:49.800Z,102364.61
2018-12-25T22:16:18.295Z,102354.69
2018-12-25T22:18:46.582Z,102359.88
2018-12-25T22:21:14.940Z,102365.07
2018-12-25T22:23:43.472Z,102368.95
2018-12-25T22:26:11.824Z,102362.09
2018-12-25T22:28:40.182Z,102369.89
2018-12-25T22:31:08.538Z,102358.63
2018-12-25T22:33:36.900Z,102361.27
2018-12-25T22:36:05.257Z,102361.67
2018-12-25T22:38:33.623Z,102367.83
2018-12-25T22:41:01.987Z,102363.88
2018-12-25T22:43:30.340Z,102373.36
2018-12-25T22:45:58.694Z,102369.47
2018-12-25T22:48:27.045Z,102378.14
2018-12-25T22:50:55.425Z,102368.17
2018-12-25T22:53:23.775Z,102368.63
2018-12-25T22:55:52.140Z,102366.09
2018-12-25T22:58:20.494Z,102366.05
2018-12-25T23:01:28.894Z,102360.92
2018-12-25T23:03:57.247Z,102368.22
2018-12-25T23:06:25.607Z,102365.70
2018-12-25T23:08:53.976Z,102368.73
2018-12-25T23:11:22.343Z,102361.34
2018-12-25T23:13:50.715Z,102363.52
2018-12-25T23:16:19.065Z,102366.09
2018-12-25T23:18:47.446Z,102366.09
2018-12-25T23:21:15.818Z,102363.98
2018-12-25T23:23:44.192Z,102368.30
2018-12-25T23:26:12.554Z,102355.30
2018-12-25T23:28:40.925Z,102367.88
2018-12-25T23:31:09.426Z,102358.36
2018-12-25T23:33:39.376Z,102357.06
2018-12-25T23:36:07.719Z,102357.03
2018-12-25T23:38:36.072Z,102353.16
2018-12-25T23:41:04.422Z,102354.45
2018-12-25T23:43:32.787Z,102351.87
2018-12-25T23:46:01.150Z,102344.97
2018-12-25T23:48:29.518Z,102341.58
2018-12-25T23:50:57.874Z,102331.23
2018-12-25T23:53:26.237Z,102336.83
2018-12-25T23:55:54.608Z,102315.23
2018-12-25T23:58:22.979Z,102317.12
